sensor_id;sensor_type;location;lat;lon;timestamp;temperature;humidity
8188;DHT22;4135;49.184;9.722;2022-09-12T00:00:26;19.80;72.90
8188;DHT22;4135;49.184;9.722;2022-09-12T00:02:55;19.80;72.80
8188;DHT22;4135;49.184;9.722;2022-09-12T00:05:25;19.80;72.80
8188;DHT22;4135;49.184;9.722;2022-09-12T00:07:56;19.80;72.80
8188;DHT22;4135;49.184;9.722;2022-09-12T00:10:25;19.70;73.00
8188;DHT22;4135;49.184;9.722;2022-09-12T00:12:55;19.70;73.10
8188;DHT22;4135;49.184;9.722;2022-09-12T00:15:25;19.70;73.30
8188;DHT22;4135;49.184;9.722;2022-09-12T00:17:54;19.70;73.40
8188;DHT22;4135;49.184;9.722;2022-09-12T00:20:24;19.70;73.40
8188;DHT22;4135;49.184;9.722;2022-09-12T00:22:53;19.70;73.50
8188;DHT22;4135;49.184;9.722;2022-09-12T00:25:23;19.60;73.50
8188;DHT22;4135;49.184;9.722;2022-09-12T00:27:52;19.60;73.40
8188;DHT22;4135;49.184;9.722;2022-09-12T00:30:21;19.60;73.40
8188;DHT22;4135;49.184;9.722;2022-09-12T00:32:51;19.60;73.50
8188;DHT22;4135;49.184;9.722;2022-09-12T00:35:22;19.60;73.60
8188;DHT22;4135;49.184;9.722;2022-09-12T00:37:52;19.60;73.60
8188;DHT22;4135;49.184;9.722;2022-09-12T00:40:22;19.60;73.50
8188;DHT22;4135;49.184;9.722;2022-09-12T00:42:51;19.60;73.20
8188;DHT22;4135;49.184;9.722;2022-09-12T00:45:27;19.60;73.00
8188;DHT22;4135;49.184;9.722;2022-09-12T00:48:00;19.60;72.80
8188;DHT22;4135;49.184;9.722;2022-09-12T00:50:31;19.60;72.60
8188;DHT22;4135;49.184;9.722;2022-09-12T00:53:03;19.60;72.30
8188;DHT22;4135;49.184;9.722;2022-09-12T00:55:40;19.60;72.30
8188;DHT22;4135;49.184;9.722;2022-09-12T00:58:22;19.60;72.30
8188;DHT22;4135;49.184;9.722;2022-09-12T01:00:53;19.60;72.20
8188;DHT22;4135;49.184;9.722;2022-09-12T01:03:23;19.60;72.20
8188;DHT22;4135;49.184;9.722;2022-09-12T01:08:42;19.60;72.10
8188;DHT22;4135;49.184;9.722;2022-09-12T01:11:13;19.60;71.80
8188;DHT22;4135;49.184;9.722;2022-09-12T01:13:44;19.60;72.20
8188;DHT22;4135;49.184;9.722;2022-09-12T01:16:14;19.60;72.90
8188;DHT22;4135;49.184;9.722;2022-09-12T01:22:55;19.60;72.10
8188;DHT22;4135;49.184;9.722;2022-09-12T01:36:11;19.50;71.60
8188;DHT22;4135;49.184;9.722;2022-09-12T01:38:57;19.50;71.50
8188;DHT22;4135;49.184;9.722;2022-09-12T01:44:38;19.40;71.40
8188;DHT22;4135;49.184;9.722;2022-09-12T01:49:59;19.30;71.60
8188;DHT22;4135;49.184;9.722;2022-09-12T01:53:11;19.20;71.60
8188;DHT22;4135;49.184;9.722;2022-09-12T01:55:35;19.20;71.70
8188;DHT22;4135;49.184;9.722;2022-09-12T01:58:11;19.10;71.90
8188;DHT22;4135;49.184;9.722;2022-09-12T02:03:26;19.10;72.20
8188;DHT22;4135;49.184;9.722;2022-09-12T02:06:10;19.10;72.10
8188;DHT22;4135;49.184;9.722;2022-09-12T02:08:53;19.10;72.00
8188;DHT22;4135;49.184;9.722;2022-09-12T02:11:25;19.10;71.90
8188;DHT22;4135;49.184;9.722;2022-09-12T02:14:08;19.10;71.70
8188;DHT22;4135;49.184;9.722;2022-09-12T02:16:49;19.20;71.60
8188;DHT22;4135;49.184;9.722;2022-09-12T02:19:22;19.20;71.50
8188;DHT22;4135;49.184;9.722;2022-09-12T02:21:56;19.10;71.40
8188;DHT22;4135;49.184;9.722;2022-09-12T02:24:48;19.10;71.50
8188;DHT22;4135;49.184;9.722;2022-09-12T02:27:41;19.00;71.70
8188;DHT22;4135;49.184;9.722;2022-09-12T02:30:13;19.00;71.70
8188;DHT22;4135;49.184;9.722;2022-09-12T02:33:06;19.00;71.60
8188;DHT22;4135;49.184;9.722;2022-09-12T02:35:45;19.00;71.40
8188;DHT22;4135;49.184;9.722;2022-09-12T02:38:39;19.00;71.50
8188;DHT22;4135;49.184;9.722;2022-09-12T02:41:15;19.00;71.20
8188;DHT22;4135;49.184;9.722;2022-09-12T02:43:47;19.00;70.90
8188;DHT22;4135;49.184;9.722;2022-09-12T02:46:25;19.00;70.90
8188;DHT22;4135;49.184;9.722;2022-09-12T02:48:55;18.90;71.00
8188;DHT22;4135;49.184;9.722;2022-09-12T02:51:26;18.90;71.10
8188;DHT22;4135;49.184;9.722;2022-09-12T02:53:56;18.90;71.10
8188;DHT22;4135;49.184;9.722;2022-09-12T02:56:30;18.90;71.00
8188;DHT22;4135;49.184;9.722;2022-09-12T02:59:06;18.90;71.10
8188;DHT22;4135;49.184;9.722;2022-09-12T03:04:46;18.80;71.30
8188;DHT22;4135;49.184;9.722;2022-09-12T03:10:31;18.80;71.40
8188;DHT22;4135;49.184;9.722;2022-09-12T03:16:02;18.70;71.20
8188;DHT22;4135;49.184;9.722;2022-09-12T03:21:40;18.70;71.20
8188;DHT22;4135;49.184;9.722;2022-09-12T03:24:25;18.70;71.30
8188;DHT22;4135;49.184;9.722;2022-09-12T03:27:00;18.70;71.20
8188;DHT22;4135;49.184;9.722;2022-09-12T03:29:32;18.70;71.00
8188;DHT22;4135;49.184;9.722;2022-09-12T03:32:02;18.70;70.90
8188;DHT22;4135;49.184;9.722;2022-09-12T03:34:31;18.60;70.80
8188;DHT22;4135;49.184;9.722;2022-09-12T03:37:01;18.70;70.80
8188;DHT22;4135;49.184;9.722;2022-09-12T03:39:31;18.60;70.70
8188;DHT22;4135;49.184;9.722;2022-09-12T03:42:01;18.60;70.60
8188;DHT22;4135;49.184;9.722;2022-09-12T03:44:30;18.60;70.30
8188;DHT22;4135;49.184;9.722;2022-09-12T03:47:00;18.60;70.20
8188;DHT22;4135;49.184;9.722;2022-09-12T03:49:29;18.60;70.10
8188;DHT22;4135;49.184;9.722;2022-09-12T03:51:59;18.50;70.00
8188;DHT22;4135;49.184;9.722;2022-09-12T03:54:28;18.50;69.90
8188;DHT22;4135;49.184;9.722;2022-09-12T03:56:58;18.60;69.90
8188;DHT22;4135;49.184;9.722;2022-09-12T03:59:27;18.50;69.70
8188;DHT22;4135;49.184;9.722;2022-09-12T04:01:57;18.50;69.70
8188;DHT22;4135;49.184;9.722;2022-09-12T04:04:26;18.50;69.50
8188;DHT22;4135;49.184;9.722;2022-09-12T04:06:56;18.50;69.40
8188;DHT22;4135;49.184;9.722;2022-09-12T04:09:26;18.50;69.40
8188;DHT22;4135;49.184;9.722;2022-09-12T04:11:55;18.50;69.30
8188;DHT22;4135;49.184;9.722;2022-09-12T04:14:25;18.50;69.10
8188;DHT22;4135;49.184;9.722;2022-09-12T04:16:54;18.40;68.90
8188;DHT22;4135;49.184;9.722;2022-09-12T04:19:25;18.40;69.00
8188;DHT22;4135;49.184;9.722;2022-09-12T04:21:54;18.30;69.00
8188;DHT22;4135;49.184;9.722;2022-09-12T04:24:24;18.30;68.90
8188;DHT22;4135;49.184;9.722;2022-09-12T04:26:54;18.30;68.90
8188;DHT22;4135;49.184;9.722;2022-09-12T04:29:23;18.30;68.90
8188;DHT22;4135;49.184;9.722;2022-09-12T04:31:53;18.20;68.60
8188;DHT22;4135;49.184;9.722;2022-09-12T04:34:22;18.20;68.60
8188;DHT22;4135;49.184;9.722;2022-09-12T04:36:52;18.20;68.60
8188;DHT22;4135;49.184;9.722;2022-09-12T04:39:22;18.20;68.50
8188;DHT22;4135;49.184;9.722;2022-09-12T04:41:51;18.20;68.40
8188;DHT22;4135;49.184;9.722;2022-09-12T04:44:21;18.20;68.40
8188;DHT22;4135;49.184;9.722;2022-09-12T04:46:50;18.20;68.60
8188;DHT22;4135;49.184;9.722;2022-09-12T04:49:21;18.20;68.60
8188;DHT22;4135;49.184;9.722;2022-09-12T04:51:51;18.20;68.40
8188;DHT22;4135;49.184;9.722;2022-09-12T04:54:21;18.20;68.30
8188;DHT22;4135;49.184;9.722;2022-09-12T04:56:51;18.20;68.20
8188;DHT22;4135;49.184;9.722;2022-09-12T04:59:21;18.20;68.10
8188;DHT22;4135;49.184;9.722;2022-09-12T05:01:50;18.20;68.00
8188;DHT22;4135;49.184;9.722;2022-09-12T05:04:20;18.10;68.00
8188;DHT22;4135;49.184;9.722;2022-09-12T05:06:49;18.10;68.40
8188;DHT22;4135;49.184;9.722;2022-09-12T05:09:19;18.10;68.30
8188;DHT22;4135;49.184;9.722;2022-09-12T05:11:49;18.20;68.60
8188;DHT22;4135;49.184;9.722;2022-09-12T05:14:18;18.20;68.60
8188;DHT22;4135;49.184;9.722;2022-09-12T05:16:48;18.30;68.50
8188;DHT22;4135;49.184;9.722;2022-09-12T05:19:17;18.20;68.40
8188;DHT22;4135;49.184;9.722;2022-09-12T05:21:47;18.30;68.90
8188;DHT22;4135;49.184;9.722;2022-09-12T05:24:17;18.30;69.80
8188;DHT22;4135;49.184;9.722;2022-09-12T05:26:46;18.30;70.20
8188;DHT22;4135;49.184;9.722;2022-09-12T05:29:16;18.30;70.20
8188;DHT22;4135;49.184;9.722;2022-09-12T05:31:45;18.30;70.00
8188;DHT22;4135;49.184;9.722;2022-09-12T05:34:19;18.30;69.80
8188;DHT22;4135;49.184;9.722;2022-09-12T05:36:48;18.30;69.80
8188;DHT22;4135;49.184;9.722;2022-09-12T05:39:18;18.30;69.40
8188;DHT22;4135;49.184;9.722;2022-09-12T05:41:48;18.20;69.10
8188;DHT22;4135;49.184;9.722;2022-09-12T05:44:17;18.20;68.80
8188;DHT22;4135;49.184;9.722;2022-09-12T05:46:47;18.20;68.70
8188;DHT22;4135;49.184;9.722;2022-09-12T05:49:19;18.10;68.40
8188;DHT22;4135;49.184;9.722;2022-09-12T05:51:49;17.90;68.20
8188;DHT22;4135;49.184;9.722;2022-09-12T05:54:19;17.90;68.30
8188;DHT22;4135;49.184;9.722;2022-09-12T05:56:49;17.90;68.30
8188;DHT22;4135;49.184;9.722;2022-09-12T05:59:20;17.90;68.40
8188;DHT22;4135;49.184;9.722;2022-09-12T06:01:50;17.90;68.30
8188;DHT22;4135;49.184;9.722;2022-09-12T06:04:20;17.90;68.30
8188;DHT22;4135;49.184;9.722;2022-09-12T06:06:50;17.90;68.40
8188;DHT22;4135;49.184;9.722;2022-09-12T06:09:20;17.90;68.70
8188;DHT22;4135;49.184;9.722;2022-09-12T06:11:49;17.90;68.80
8188;DHT22;4135;49.184;9.722;2022-09-12T06:14:20;17.90;68.80
8188;DHT22;4135;49.184;9.722;2022-09-12T06:16:50;18.00;68.90
8188;DHT22;4135;49.184;9.722;2022-09-12T06:19:21;18.00;68.90
8188;DHT22;4135;49.184;9.722;2022-09-12T06:21:52;17.90;69.10
8188;DHT22;4135;49.184;9.722;2022-09-12T06:24:22;17.90;69.30
8188;DHT22;4135;49.184;9.722;2022-09-12T06:26:51;18.00;69.50
8188;DHT22;4135;49.184;9.722;2022-09-12T06:29:21;17.90;69.60
8188;DHT22;4135;49.184;9.722;2022-09-12T06:31:50;17.90;69.90
8188;DHT22;4135;49.184;9.722;2022-09-12T06:34:20;17.90;70.30
8188;DHT22;4135;49.184;9.722;2022-09-12T06:36:49;17.90;70.40
8188;DHT22;4135;49.184;9.722;2022-09-12T06:39:20;17.90;70.30
8188;DHT22;4135;49.184;9.722;2022-09-12T06:41:51;17.80;70.70
8188;DHT22;4135;49.184;9.722;2022-09-12T06:44:21;17.80;71.40
8188;DHT22;4135;49.184;9.722;2022-09-12T06:46:51;17.80;71.60
8188;DHT22;4135;49.184;9.722;2022-09-12T06:49:22;17.80;71.90
8188;DHT22;4135;49.184;9.722;2022-09-12T06:51:51;17.70;72.20
8188;DHT22;4135;49.184;9.722;2022-09-12T06:54:21;17.70;72.50
8188;DHT22;4135;49.184;9.722;2022-09-12T06:56:51;17.70;73.00
8188;DHT22;4135;49.184;9.722;2022-09-12T06:59:21;17.70;73.60
8188;DHT22;4135;49.184;9.722;2022-09-12T07:01:51;17.70;73.60
8188;DHT22;4135;49.184;9.722;2022-09-12T07:04:20;17.80;74.00
8188;DHT22;4135;49.184;9.722;2022-09-12T07:06:50;17.80;74.30
8188;DHT22;4135;49.184;9.722;2022-09-12T07:09:19;17.90;74.30
8188;DHT22;4135;49.184;9.722;2022-09-12T07:11:49;17.90;74.30
8188;DHT22;4135;49.184;9.722;2022-09-12T07:14:18;18.00;73.50
8188;DHT22;4135;49.184;9.722;2022-09-12T07:16:48;18.00;73.00
8188;DHT22;4135;49.184;9.722;2022-09-12T07:19:17;18.10;73.20
8188;DHT22;4135;49.184;9.722;2022-09-12T07:21:47;18.10;73.00
8188;DHT22;4135;49.184;9.722;2022-09-12T07:24:16;18.20;73.00
8188;DHT22;4135;49.184;9.722;2022-09-12T07:26:46;18.20;73.10
8188;DHT22;4135;49.184;9.722;2022-09-12T07:29:16;18.20;73.50
8188;DHT22;4135;49.184;9.722;2022-09-12T07:31:45;18.30;73.40
8188;DHT22;4135;49.184;9.722;2022-09-12T07:34:15;18.30;73.70
8188;DHT22;4135;49.184;9.722;2022-09-12T07:36:45;18.30;74.60
8188;DHT22;4135;49.184;9.722;2022-09-12T07:39:15;18.30;74.80
8188;DHT22;4135;49.184;9.722;2022-09-12T07:41:44;18.40;75.90
8188;DHT22;4135;49.184;9.722;2022-09-12T07:44:14;18.40;75.60
8188;DHT22;4135;49.184;9.722;2022-09-12T07:46:43;18.40;75.60
8188;DHT22;4135;49.184;9.722;2022-09-12T07:49:13;18.50;76.70
8188;DHT22;4135;49.184;9.722;2022-09-12T07:51:42;18.50;77.20
8188;DHT22;4135;49.184;9.722;2022-09-12T07:54:12;18.50;78.90
8188;DHT22;4135;49.184;9.722;2022-09-12T07:56:41;18.60;80.20
8188;DHT22;4135;49.184;9.722;2022-09-12T07:59:11;18.60;80.90
8188;DHT22;4135;49.184;9.722;2022-09-12T08:01:40;18.60;81.90
8188;DHT22;4135;49.184;9.722;2022-09-12T08:04:10;18.60;83.70
8188;DHT22;4135;49.184;9.722;2022-09-12T08:06:40;18.70;84.70
8188;DHT22;4135;49.184;9.722;2022-09-12T08:09:09;18.70;84.20
8188;DHT22;4135;49.184;9.722;2022-09-12T08:11:41;18.80;84.40
8188;DHT22;4135;49.184;9.722;2022-09-12T08:14:10;18.80;86.40
8188;DHT22;4135;49.184;9.722;2022-09-12T08:16:40;18.80;86.50
8188;DHT22;4135;49.184;9.722;2022-09-12T08:19:09;18.80;83.00
8188;DHT22;4135;49.184;9.722;2022-09-12T08:21:39;18.90;87.90
8188;DHT22;4135;49.184;9.722;2022-09-12T08:24:10;18.80;84.80
8188;DHT22;4135;49.184;9.722;2022-09-12T08:26:40;18.90;85.90
8188;DHT22;4135;49.184;9.722;2022-09-12T08:29:10;18.90;86.50
8188;DHT22;4135;49.184;9.722;2022-09-12T08:31:40;18.90;88.20
8188;DHT22;4135;49.184;9.722;2022-09-12T08:34:10;19.00;87.20
8188;DHT22;4135;49.184;9.722;2022-09-12T08:36:40;19.10;89.00
8188;DHT22;4135;49.184;9.722;2022-09-12T08:39:12;19.10;88.90
8188;DHT22;4135;49.184;9.722;2022-09-12T08:41:47;19.10;86.90
8188;DHT22;4135;49.184;9.722;2022-09-12T08:49:48;19.20;84.90
8188;DHT22;4135;49.184;9.722;2022-09-12T08:52:25;19.20;84.10
8188;DHT22;4135;49.184;9.722;2022-09-12T08:54:55;19.30;83.40
8188;DHT22;4135;49.184;9.722;2022-09-12T08:57:25;19.30;83.30
8188;DHT22;4135;49.184;9.722;2022-09-12T08:59:55;19.30;83.10
8188;DHT22;4135;49.184;9.722;2022-09-12T09:05:23;19.40;83.10
8188;DHT22;4135;49.184;9.722;2022-09-12T09:08:44;19.40;83.80
8188;DHT22;4135;49.184;9.722;2022-09-12T09:17:41;19.20;82.30
8188;DHT22;4135;49.184;9.722;2022-09-12T09:20:44;19.60;81.60
8188;DHT22;4135;49.184;9.722;2022-09-12T09:23:22;19.60;81.20
8188;DHT22;4135;49.184;9.722;2022-09-12T09:28:49;19.60;80.70
8188;DHT22;4135;49.184;9.722;2022-09-12T09:31:22;19.70;80.10
8188;DHT22;4135;49.184;9.722;2022-09-12T09:33:53;19.70;78.20
8188;DHT22;4135;49.184;9.722;2022-09-12T09:42:17;19.80;77.00
8188;DHT22;4135;49.184;9.722;2022-09-12T09:44:51;19.80;76.50
8188;DHT22;4135;49.184;9.722;2022-09-12T09:47:21;19.80;75.60
8188;DHT22;4135;49.184;9.722;2022-09-12T09:49:51;19.80;75.20
8188;DHT22;4135;49.184;9.722;2022-09-12T09:52:25;19.90;74.80
8188;DHT22;4135;49.184;9.722;2022-09-12T09:54:58;19.90;74.30
8188;DHT22;4135;49.184;9.722;2022-09-12T10:06:06;20.00;72.20
8188;DHT22;4135;49.184;9.722;2022-09-12T10:08:36;20.00;72.30
8188;DHT22;4135;49.184;9.722;2022-09-12T10:11:19;20.00;72.10
8188;DHT22;4135;49.184;9.722;2022-09-12T10:13:52;20.10;71.90
8188;DHT22;4135;49.184;9.722;2022-09-12T10:16:24;20.10;71.70
8188;DHT22;4135;49.184;9.722;2022-09-12T10:18:56;20.10;71.40
8188;DHT22;4135;49.184;9.722;2022-09-12T10:21:41;20.10;70.70
8188;DHT22;4135;49.184;9.722;2022-09-12T10:29:45;20.20;70.20
8188;DHT22;4135;49.184;9.722;2022-09-12T10:35:07;20.30;70.20
8188;DHT22;4135;49.184;9.722;2022-09-12T10:37:56;20.30;70.40
8188;DHT22;4135;49.184;9.722;2022-09-12T10:40:28;20.30;69.90
8188;DHT22;4135;49.184;9.722;2022-09-12T10:43:00;20.40;69.80
8188;DHT22;4135;49.184;9.722;2022-09-12T10:45:34;20.40;69.30
8188;DHT22;4135;49.184;9.722;2022-09-12T10:48:32;20.40;69.30
8188;DHT22;4135;49.184;9.722;2022-09-12T10:51:03;20.40;68.90
8188;DHT22;4135;49.184;9.722;2022-09-12T10:53:40;20.50;68.60
8188;DHT22;4135;49.184;9.722;2022-09-12T10:56:37;20.50;68.20
8188;DHT22;4135;49.184;9.722;2022-09-12T11:02:28;20.50;68.10
8188;DHT22;4135;49.184;9.722;2022-09-12T11:05:05;20.50;68.00
8188;DHT22;4135;49.184;9.722;2022-09-12T11:07:46;20.60;68.10
8188;DHT22;4135;49.184;9.722;2022-09-12T11:10:47;20.60;67.90
8188;DHT22;4135;49.184;9.722;2022-09-12T11:29:48;20.80;66.80
8188;DHT22;4135;49.184;9.722;2022-09-12T11:40:52;20.80;66.40
8188;DHT22;4135;49.184;9.722;2022-09-12T11:43:36;20.80;66.40
8188;DHT22;4135;49.184;9.722;2022-09-12T11:46:20;20.90;66.40
8188;DHT22;4135;49.184;9.722;2022-09-12T11:49:05;20.90;66.40
8188;DHT22;4135;49.184;9.722;2022-09-12T11:51:59;20.90;66.20
8188;DHT22;4135;49.184;9.722;2022-09-12T11:57:14;21.00;66.10
8188;DHT22;4135;49.184;9.722;2022-09-12T11:59:50;21.00;66.00
8188;DHT22;4135;49.184;9.722;2022-09-12T12:02:38;21.00;66.10
8188;DHT22;4135;49.184;9.722;2022-09-12T12:05:19;21.00;65.90
8188;DHT22;4135;49.184;9.722;2022-09-12T12:07:52;21.10;66.00
8188;DHT22;4135;49.184;9.722;2022-09-12T12:10:25;21.10;65.90
8188;DHT22;4135;49.184;9.722;2022-09-12T12:12:57;21.10;65.90
8188;DHT22;4135;49.184;9.722;2022-09-12T12:15:28;21.10;65.90
8188;DHT22;4135;49.184;9.722;2022-09-12T12:18:05;21.20;65.90
8188;DHT22;4135;49.184;9.722;2022-09-12T12:20:35;21.20;65.80
8188;DHT22;4135;49.184;9.722;2022-09-12T12:23:05;21.20;65.60
8188;DHT22;4135;49.184;9.722;2022-09-12T12:25:39;21.20;65.50
8188;DHT22;4135;49.184;9.722;2022-09-12T12:28:09;21.30;65.50
8188;DHT22;4135;49.184;9.722;2022-09-12T12:35:42;21.40;65.90
8188;DHT22;4135;49.184;9.722;2022-09-12T12:38:35;21.40;65.10
8188;DHT22;4135;49.184;9.722;2022-09-12T12:43:51;21.40;64.80
8188;DHT22;4135;49.184;9.722;2022-09-12T12:46:25;21.50;64.80
8188;DHT22;4135;49.184;9.722;2022-09-12T12:54:03;21.60;64.40
8188;DHT22;4135;49.184;9.722;2022-09-12T12:56:38;21.70;64.40
8188;DHT22;4135;49.184;9.722;2022-09-12T12:59:16;21.60;63.90
8188;DHT22;4135;49.184;9.722;2022-09-12T13:01:51;21.60;63.80
8188;DHT22;4135;49.184;9.722;2022-09-12T13:04:25;21.60;63.50
8188;DHT22;4135;49.184;9.722;2022-09-12T13:07:04;21.60;62.60
8188;DHT22;4135;49.184;9.722;2022-09-12T13:09:38;21.70;62.70
8188;DHT22;4135;49.184;9.722;2022-09-12T13:12:23;21.70;62.20
8188;DHT22;4135;49.184;9.722;2022-09-12T13:14:56;21.70;61.90
8188;DHT22;4135;49.184;9.722;2022-09-12T13:17:30;21.70;61.70
8188;DHT22;4135;49.184;9.722;2022-09-12T13:20:15;21.70;61.80
8188;DHT22;4135;49.184;9.722;2022-09-12T13:22:47;21.70;61.70
8188;DHT22;4135;49.184;9.722;2022-09-12T13:25:30;21.70;61.50
8188;DHT22;4135;49.184;9.722;2022-09-12T13:28:13;21.80;61.50
8188;DHT22;4135;49.184;9.722;2022-09-12T13:31:03;21.80;61.40
8188;DHT22;4135;49.184;9.722;2022-09-12T13:33:46;21.80;61.30
8188;DHT22;4135;49.184;9.722;2022-09-12T13:36:45;21.80;60.70
8188;DHT22;4135;49.184;9.722;2022-09-12T13:39:28;21.80;60.50
8188;DHT22;4135;49.184;9.722;2022-09-12T13:45:03;21.90;60.50
8188;DHT22;4135;49.184;9.722;2022-09-12T13:47:40;21.90;60.30
8188;DHT22;4135;49.184;9.722;2022-09-12T13:50:29;21.90;59.80
8188;DHT22;4135;49.184;9.722;2022-09-12T13:53:05;21.90;60.00
8188;DHT22;4135;49.184;9.722;2022-09-12T13:55:38;21.90;59.80
8188;DHT22;4135;49.184;9.722;2022-09-12T14:00:47;22.00;60.10
8188;DHT22;4135;49.184;9.722;2022-09-12T14:03:31;22.00;60.40
8188;DHT22;4135;49.184;9.722;2022-09-12T14:06:20;22.00;60.00
8188;DHT22;4135;49.184;9.722;2022-09-12T14:08:51;22.00;59.70
8188;DHT22;4135;49.184;9.722;2022-09-12T14:11:28;22.00;59.30
8188;DHT22;4135;49.184;9.722;2022-09-12T14:14:00;22.00;58.90
8188;DHT22;4135;49.184;9.722;2022-09-12T14:16:37;22.00;58.70
8188;DHT22;4135;49.184;9.722;2022-09-12T14:19:09;22.10;59.10
8188;DHT22;4135;49.184;9.722;2022-09-12T14:21:40;22.10;59.20
8188;DHT22;4135;49.184;9.722;2022-09-12T14:24:11;22.10;58.90
8188;DHT22;4135;49.184;9.722;2022-09-12T14:26:43;22.10;58.70
8188;DHT22;4135;49.184;9.722;2022-09-12T14:29:14;22.10;58.80
8188;DHT22;4135;49.184;9.722;2022-09-12T14:31:45;22.10;58.70
8188;DHT22;4135;49.184;9.722;2022-09-12T14:34:18;22.10;58.80
8188;DHT22;4135;49.184;9.722;2022-09-12T14:36:50;22.10;58.90
8188;DHT22;4135;49.184;9.722;2022-09-12T14:42:09;22.20;59.30
8188;DHT22;4135;49.184;9.722;2022-09-12T14:44:48;22.20;59.40
8188;DHT22;4135;49.184;9.722;2022-09-12T14:47:23;22.20;59.50
8188;DHT22;4135;49.184;9.722;2022-09-12T14:49:53;22.20;59.60
8188;DHT22;4135;49.184;9.722;2022-09-12T14:54:56;22.20;58.90
8188;DHT22;4135;49.184;9.722;2022-09-12T15:02:41;22.20;59.00
8188;DHT22;4135;49.184;9.722;2022-09-12T15:07:56;22.30;59.00
8188;DHT22;4135;49.184;9.722;2022-09-12T15:10:35;22.30;58.90
8188;DHT22;4135;49.184;9.722;2022-09-12T15:15:40;22.30;58.90
8188;DHT22;4135;49.184;9.722;2022-09-12T15:18:10;22.30;58.40
8188;DHT22;4135;49.184;9.722;2022-09-12T15:20:42;22.30;58.20
8188;DHT22;4135;49.184;9.722;2022-09-12T15:26:16;22.40;56.70
8188;DHT22;4135;49.184;9.722;2022-09-12T15:28:47;22.30;57.20
8188;DHT22;4135;49.184;9.722;2022-09-12T15:31:30;22.30;56.80
8188;DHT22;4135;49.184;9.722;2022-09-12T15:34:01;22.40;56.50
8188;DHT22;4135;49.184;9.722;2022-09-12T15:36:31;22.40;56.50
8188;DHT22;4135;49.184;9.722;2022-09-12T15:39:00;22.40;56.70
8188;DHT22;4135;49.184;9.722;2022-09-12T15:41:32;22.40;56.50
8188;DHT22;4135;49.184;9.722;2022-09-12T15:44:03;22.40;56.80
8188;DHT22;4135;49.184;9.722;2022-09-12T15:46:33;22.40;56.00
8188;DHT22;4135;49.184;9.722;2022-09-12T15:49:03;22.40;55.70
8188;DHT22;4135;49.184;9.722;2022-09-12T15:51:32;22.40;56.10
8188;DHT22;4135;49.184;9.722;2022-09-12T15:54:03;22.40;55.90
8188;DHT22;4135;49.184;9.722;2022-09-12T15:56:32;22.40;55.70
8188;DHT22;4135;49.184;9.722;2022-09-12T15:59:02;22.40;55.90
8188;DHT22;4135;49.184;9.722;2022-09-12T16:01:31;22.30;56.00
8188;DHT22;4135;49.184;9.722;2022-09-12T16:04:02;22.40;56.00
8188;DHT22;4135;49.184;9.722;2022-09-12T16:06:31;22.40;56.20
8188;DHT22;4135;49.184;9.722;2022-09-12T16:09:02;22.40;56.20
8188;DHT22;4135;49.184;9.722;2022-09-12T16:11:31;22.40;56.80
8188;DHT22;4135;49.184;9.722;2022-09-12T16:14:01;22.40;56.80
8188;DHT22;4135;49.184;9.722;2022-09-12T16:16:32;22.40;57.10
8188;DHT22;4135;49.184;9.722;2022-09-12T16:19:02;22.40;57.00
8188;DHT22;4135;49.184;9.722;2022-09-12T16:21:31;22.40;57.00
8188;DHT22;4135;49.184;9.722;2022-09-12T16:24:01;22.30;57.00
8188;DHT22;4135;49.184;9.722;2022-09-12T16:26:31;22.30;56.60
8188;DHT22;4135;49.184;9.722;2022-09-12T16:29:00;22.30;56.00
8188;DHT22;4135;49.184;9.722;2022-09-12T16:31:30;22.30;55.90
8188;DHT22;4135;49.184;9.722;2022-09-12T16:33:59;22.30;55.80
8188;DHT22;4135;49.184;9.722;2022-09-12T16:36:29;22.30;55.50
8188;DHT22;4135;49.184;9.722;2022-09-12T16:38:58;22.30;55.60
8188;DHT22;4135;49.184;9.722;2022-09-12T16:41:28;22.30;55.60
8188;DHT22;4135;49.184;9.722;2022-09-12T16:43:57;22.30;56.00
8188;DHT22;4135;49.184;9.722;2022-09-12T16:46:27;22.30;55.90
8188;DHT22;4135;49.184;9.722;2022-09-12T16:48:57;22.30;56.50
8188;DHT22;4135;49.184;9.722;2022-09-12T16:51:30;22.30;56.10
8188;DHT22;4135;49.184;9.722;2022-09-12T16:54:00;22.30;56.00
8188;DHT22;4135;49.184;9.722;2022-09-12T16:56:30;22.30;56.10
8188;DHT22;4135;49.184;9.722;2022-09-12T16:58:59;22.30;56.30
8188;DHT22;4135;49.184;9.722;2022-09-12T17:01:29;22.30;56.40
8188;DHT22;4135;49.184;9.722;2022-09-12T17:03:58;22.30;56.40
8188;DHT22;4135;49.184;9.722;2022-09-12T17:06:28;22.30;56.10
8188;DHT22;4135;49.184;9.722;2022-09-12T17:08:59;22.30;56.40
8188;DHT22;4135;49.184;9.722;2022-09-12T17:11:36;22.20;55.90
8188;DHT22;4135;49.184;9.722;2022-09-12T17:14:07;22.30;56.00
8188;DHT22;4135;49.184;9.722;2022-09-12T17:16:39;22.30;55.60
8188;DHT22;4135;49.184;9.722;2022-09-12T17:19:23;22.30;55.80
8188;DHT22;4135;49.184;9.722;2022-09-12T17:21:58;22.30;56.70
8188;DHT22;4135;49.184;9.722;2022-09-12T17:24:27;22.30;56.20
8188;DHT22;4135;49.184;9.722;2022-09-12T17:26:57;22.30;56.30
8188;DHT22;4135;49.184;9.722;2022-09-12T17:29:27;22.30;57.00
8188;DHT22;4135;49.184;9.722;2022-09-12T17:31:57;22.30;56.40
8188;DHT22;4135;49.184;9.722;2022-09-12T17:34:26;22.30;56.00
8188;DHT22;4135;49.184;9.722;2022-09-12T17:36:56;22.20;55.80
8188;DHT22;4135;49.184;9.722;2022-09-12T17:39:25;22.20;55.90
8188;DHT22;4135;49.184;9.722;2022-09-12T17:41:56;22.20;55.90
8188;DHT22;4135;49.184;9.722;2022-09-12T17:44:27;22.20;55.70
8188;DHT22;4135;49.184;9.722;2022-09-12T17:46:58;22.20;55.60
8188;DHT22;4135;49.184;9.722;2022-09-12T17:49:27;22.20;55.60
8188;DHT22;4135;49.184;9.722;2022-09-12T17:51:57;22.10;55.40
8188;DHT22;4135;49.184;9.722;2022-09-12T17:54:26;22.10;55.90
8188;DHT22;4135;49.184;9.722;2022-09-12T17:56:56;22.10;55.30
8188;DHT22;4135;49.184;9.722;2022-09-12T17:59:25;22.10;55.50
8188;DHT22;4135;49.184;9.722;2022-09-12T18:01:55;22.10;55.50
8188;DHT22;4135;49.184;9.722;2022-09-12T18:04:44;22.10;55.50
8188;DHT22;4135;49.184;9.722;2022-09-12T18:07:18;22.10;55.40
8188;DHT22;4135;49.184;9.722;2022-09-12T18:09:49;22.10;55.30
8188;DHT22;4135;49.184;9.722;2022-09-12T18:12:19;22.10;55.30
8188;DHT22;4135;49.184;9.722;2022-09-12T18:14:49;22.00;55.30
8188;DHT22;4135;49.184;9.722;2022-09-12T18:17:18;22.00;55.30
8188;DHT22;4135;49.184;9.722;2022-09-12T18:19:48;22.00;55.40
8188;DHT22;4135;49.184;9.722;2022-09-12T18:22:20;22.00;55.30
8188;DHT22;4135;49.184;9.722;2022-09-12T18:24:49;21.90;55.20
8188;DHT22;4135;49.184;9.722;2022-09-12T18:27:19;21.90;55.10
8188;DHT22;4135;49.184;9.722;2022-09-12T18:29:48;21.90;55.20
8188;DHT22;4135;49.184;9.722;2022-09-12T18:32:18;21.90;55.30
8188;DHT22;4135;49.184;9.722;2022-09-12T18:34:47;21.90;55.20
8188;DHT22;4135;49.184;9.722;2022-09-12T18:37:17;21.90;55.20
8188;DHT22;4135;49.184;9.722;2022-09-12T18:39:46;21.90;55.40
8188;DHT22;4135;49.184;9.722;2022-09-12T18:42:16;21.90;55.20
8188;DHT22;4135;49.184;9.722;2022-09-12T18:44:45;21.90;55.30
8188;DHT22;4135;49.184;9.722;2022-09-12T18:47:15;21.80;55.10
8188;DHT22;4135;49.184;9.722;2022-09-12T18:49:44;21.80;55.30
8188;DHT22;4135;49.184;9.722;2022-09-12T18:52:14;21.80;55.20
8188;DHT22;4135;49.184;9.722;2022-09-12T18:54:43;21.80;55.20
8188;DHT22;4135;49.184;9.722;2022-09-12T18:57:13;21.80;55.20
8188;DHT22;4135;49.184;9.722;2022-09-12T18:59:42;21.70;55.20
8188;DHT22;4135;49.184;9.722;2022-09-12T19:02:15;21.70;55.20
8188;DHT22;4135;49.184;9.722;2022-09-12T19:04:45;21.70;55.20